createdAt,value
2022-11-03T00:01:56.100Z,95497.56
2022-11-03T00:04:23.243Z,95490.84
2022-11-03T00:06:52.028Z,95483.09
2022-11-03T00:09:20.308Z,95482.06
2022-11-03T00:11:48.500Z,95480.53
2022-11-03T00:14:15.147Z,95479.59
2022-11-03T00:16:41.750Z,95475.75
2022-11-03T00:19:09.942Z,95478.19
2022-11-03T00:21:37.557Z,95482.72
2022-11-03T00:24:05.037Z,95484.97
2022-11-03T00:26:33.590Z,95483.84
2022-11-03T00:29:05.762Z,95477.50
2022-11-03T00:31:34.506Z,95474.13
2022-11-03T00:34:01.985Z,95473.41
2022-11-03T00:36:31.253Z,95477.69
2022-11-03T00:38:57.996Z,95466.56
2022-11-03T00:41:26.671Z,95468.50
2022-11-03T00:43:53.844Z,95471.19
2022-11-03T00:46:21.890Z,95472.19
2022-11-03T00:48:49.093Z,95471.84
2022-11-03T00:51:23.439Z,95465.97
2022-11-03T00:53:54.134Z,95471.97
2022-11-03T00:56:25.662Z,95465.84
2022-11-03T00:58:53.068Z,95472.91
2022-11-03T01:01:23.838Z,95458.38
2022-11-03T01:06:53.536Z,95459.69
2022-11-03T01:09:36.785Z,95455.63
2022-11-03T01:12:18.238Z,95451.63
2022-11-03T01:14:53.005Z,95458.47
2022-11-03T01:17:25.403Z,95461.75
2022-11-03T01:19:52.697Z,95461.25
2022-11-03T01:22:20.097Z,95453.06
2022-11-03T01:24:46.983Z,95455.72
2022-11-03T01:27:16.792Z,95456.63
2022-11-03T01:29:43.782Z,95450.50
2022-11-03T01:32:11.027Z,95449.66
2022-11-03T01:34:38.011Z,95444.94
2022-11-03T01:37:05.294Z,95441.44
2022-11-03T01:39:31.877Z,95435.91
2022-11-03T01:41:58.599Z,95425.50
2022-11-03T01:44:37.393Z,95422.56
2022-11-03T01:47:15.356Z,95420.91
2022-11-03T01:49:51.405Z,95419.53
2022-11-03T01:52:26.408Z,95417.69
2022-11-03T01:55:02.156Z,95422.41
2022-11-03T01:57:37.320Z,95424.06
2022-11-03T02:00:04.953Z,95422.19
2022-11-03T02:05:29.078Z,95422.03
2022-11-03T02:08:17.615Z,95416.41
2022-11-03T02:10:47.821Z,95418.25
2022-11-03T02:13:26.615Z,95414.91
2022-11-03T02:15:57.291Z,95415.75
2022-11-03T02:18:34.463Z,95413.19
2022-11-03T02:21:16.985Z,95403.19
2022-11-03T02:24:12.788Z,95399.13
2022-11-03T02:26:41.030Z,95400.31
2022-11-03T02:29:07.655Z,95384.47
2022-11-03T02:31:49.759Z,95383.88
2022-11-03T02:34:26.956Z,95376.53
2022-11-03T02:36:59.331Z,95363.78
2022-11-03T02:39:33.398Z,95367.84
2022-11-03T02:42:03.259Z,95363.88
2022-11-03T02:44:32.282Z,95366.63
2022-11-03T02:47:03.714Z,95359.38
2022-11-03T02:49:30.306Z,95354.56
2022-11-03T02:52:05.298Z,95351.19
2022-11-03T02:54:45.640Z,95347.72
2022-11-03T02:57:16.909Z,95336.47
2022-11-03T02:59:56.330Z,95335.06
2022-11-03T03:02:33.538Z,95327.59
2022-11-03T03:05:04.010Z,95324.31
2022-11-03T03:07:34.193Z,95321.47
2022-11-03T03:10:14.614Z,95325.56
2022-11-03T03:12:47.474Z,95317.44
2022-11-03T03:15:16.150Z,95317.25
2022-11-03T03:17:59.130Z,95315.50
2022-11-03T03:20:44.943Z,95316.53
2022-11-03T03:23:20.718Z,95310.59
2022-11-03T03:25:53.818Z,95320.53
2022-11-03T03:28:31.226Z,95322.97
2022-11-03T03:31:01.600Z,95327.84
2022-11-03T03:33:30.009Z,95330.31
2022-11-03T03:35:59.680Z,95328.22
2022-11-03T03:38:32.206Z,95326.25
2022-11-03T03:40:59.960Z,95329.63
2022-11-03T03:43:29.575Z,95319.28
2022-11-03T03:46:01.574Z,95308.34
2022-11-03T03:48:28.383Z,95303.94
2022-11-03T03:50:55.622Z,95309.16
2022-11-03T03:53:22.191Z,95300.22
2022-11-03T03:55:51.426Z,95298.16
2022-11-03T03:58:18.513Z,95295.72
2022-11-03T04:00:45.286Z,95303.16
2022-11-03T04:03:24.488Z,95303.03
2022-11-03T04:05:51.590Z,95297.00
2022-11-03T04:08:18.557Z,95292.22
2022-11-03T04:11:05.675Z,95293.47
2022-11-03T04:13:52.300Z,95297.34
2022-11-03T04:16:37.566Z,95297.59
2022-11-03T04:19:22.636Z,95292.38
2022-11-03T04:22:07.673Z,95287.84
2022-11-03T04:24:34.283Z,95283.44
2022-11-03T04:27:05.907Z,95280.41
2022-11-03T04:29:32.486Z,95277.34
2022-11-03T04:31:59.724Z,95281.38
2022-11-03T04:34:26.362Z,95277.69
2022-11-03T04:36:52.897Z,95268.34
2022-11-03T04:39:20.218Z,95262.69
2022-11-03T04:41:47.159Z,95251.97
2022-11-03T04:44:16.638Z,95263.44
2022-11-03T04:46:45.846Z,95263.56
2022-11-03T04:49:20.343Z,95255.16
2022-11-03T04:51:47.569Z,95255.56
2022-11-03T04:54:20.805Z,95242.69
2022-11-03T04:56:47.398Z,95242.28
2022-11-03T04:59:16.147Z,95238.69
2022-11-03T05:01:45.273Z,95234.03
2022-11-03T05:04:15.037Z,95233.81
2022-11-03T05:06:47.665Z,95239.69
2022-11-03T05:09:28.921Z,95232.31
2022-11-03T05:11:55.562Z,95219.06
2022-11-03T05:14:25.822Z,95213.22
2022-11-03T05:16:53.908Z,95221.56
2022-11-03T05:22:22.437Z,95204.25
2022-11-03T05:24:58.326Z,95192.97
2022-11-03T05:27:25.123Z,95183.13
2022-11-03T05:29:56.392Z,95185.06
2022-11-03T05:32:30.246Z,95177.75
2022-11-03T05:34:57.346Z,95178.56
2022-11-03T05:37:28.264Z,95175.56
2022-11-03T05:40:20.762Z,95171.97
2022-11-03T05:42:51.918Z,95171.63
2022-11-03T05:45:29.528Z,95174.19
2022-11-03T05:47:57.224Z,95179.41
2022-11-03T05:50:28.057Z,95163.63
2022-11-03T05:53:19.351Z,95165.38
2022-11-03T05:55:46.039Z,95172.56
2022-11-03T05:58:19.204Z,95157.91
2022-11-03T06:00:48.842Z,95163.00
2022-11-03T06:03:24.591Z,95168.59
2022-11-03T06:05:52.202Z,95169.31
2022-11-03T06:08:25.636Z,95158.97
2022-11-03T06:10:55.206Z,95167.44
2022-11-03T06:13:35.265Z,95170.41
2022-11-03T06:16:39.791Z,95169.34
2022-11-03T06:19:25.509Z,95155.06
2022-11-03T06:21:55.280Z,95156.38
2022-11-03T06:24:25.268Z,95154.72
2022-11-03T06:26:52.421Z,95145.91
2022-11-03T06:29:21.209Z,95143.13
2022-11-03T06:31:50.587Z,95132.19
2022-11-03T06:34:39.283Z,95141.72
2022-11-03T06:37:15.814Z,95135.47
2022-11-03T06:39:42.459Z,95144.63
2022-11-03T06:42:13.902Z,95146.97
2022-11-03T06:44:42.768Z,95142.66
2022-11-03T06:47:15.521Z,95145.91
2022-11-03T06:49:43.157Z,95147.75
2022-11-03T06:52:28.344Z,95141.28
2022-11-03T06:55:01.872Z,95134.06
2022-11-03T06:57:33.927Z,95135.03
2022-11-03T07:00:28.610Z,95128.63
2022-11-03T07:03:05.879Z,95129.06
2022-11-03T07:05:33.014Z,95136.75
2022-11-03T07:08:11.493Z,95130.34
2022-11-03T07:10:38.145Z,95138.28
2022-11-03T07:13:14.292Z,95143.59
2022-11-03T07:15:43.338Z,95145.25
2022-11-03T07:18:34.143Z,95146.78
2022-11-03T07:21:07.040Z,95149.44
2022-11-03T07:23:33.627Z,95144.44
2022-11-03T07:26:01.482Z,95142.09
2022-11-03T07:28:37.244Z,95143.84
2022-11-03T07:31:16.575Z,95130.69
2022-11-03T07:33:44.004Z,95131.84
2022-11-03T07:36:24.456Z,95122.91
2022-11-03T07:38:53.445Z,95115.34
2022-11-03T07:41:22.271Z,95119.31
2022-11-03T07:43:57.676Z,95108.94
2022-11-03T07:46:26.120Z,95114.16
2022-11-03T07:49:00.000Z,95103.69
2022-11-03T07:51:33.099Z,95104.13
2022-11-03T07:54:05.605Z,95099.25
2022-11-03T07:56:38.280Z,95098.63
2022-11-03T07:59:11.703Z,95090.47
2022-11-03T08:01:42.545Z,95089.78
2022-11-03T08:04:31.384Z,95077.41
2022-11-03T08:06:58.024Z,95081.09
2022-11-03T08:09:24.675Z,95070.69
2022-11-03T08:11:51.771Z,95062.78
2022-11-03T08:14:18.635Z,95054.72
2022-11-03T08:16:45.239Z,95062.72
2022-11-03T08:19:12.103Z,95062.84
2022-11-03T08:21:38.730Z,95054.34
2022-11-03T08:24:05.982Z,95045.47
2022-11-03T08:26:32.597Z,95043.47
2022-11-03T08:28:59.176Z,95044.31
2022-11-03T08:31:25.777Z,95038.63
2022-11-03T08:33:52.333Z,95046.38
2022-11-03T08:36:19.983Z,95040.50
2022-11-03T08:38:46.593Z,95032.59
2022-11-03T08:41:13.193Z,95034.69
2022-11-03T08:43:39.801Z,95037.22
2022-11-03T08:46:16.700Z,95022.00
2022-11-03T08:48:44.584Z,95027.44
2022-11-03T08:51:13.582Z,95019.97
2022-11-03T08:53:42.458Z,95011.47
2022-11-03T08:56:14.210Z,95007.41
2022-11-03T08:58:42.887Z,95001.72
2022-11-03T09:01:09.490Z,95001.84
2022-11-03T09:03:36.109Z,94994.91
2022-11-03T09:06:02.690Z,94995.94
2022-11-03T09:11:15.830Z,94981.88
2022-11-03T09:13:42.389Z,94985.81
2022-11-03T09:16:08.942Z,94992.91
2022-11-03T09:18:35.557Z,94994.13
2022-11-03T09:21:02.166Z,94987.81
2022-11-03T09:23:28.732Z,94979.25
2022-11-03T09:25:55.348Z,94972.72
2022-11-03T09:28:21.959Z,94977.22
2022-11-03T09:30:48.957Z,94975.59
2022-11-03T09:33:15.537Z,94970.06
2022-11-03T09:35:42.110Z,94962.81
2022-11-03T09:38:08.948Z,94952.97
2022-11-03T09:40:36.250Z,94945.56
2022-11-03T09:43:03.435Z,94940.28
2022-11-03T09:45:30.044Z,94942.44
2022-11-03T09:47:56.963Z,94928.88
2022-11-03T09:50:23.682Z,94925.91
2022-11-03T09:52:55.293Z,94915.50
2022-11-03T09:55:25.832Z,94919.88
2022-11-03T09:57:55.196Z,94912.88
2022-11-03T10:00:23.847Z,94906.53
2022-11-03T10:02:50.879Z,94902.72
2022-11-03T10:05:23.313Z,94901.63
2022-11-03T10:07:52.667Z,94903.31
2022-11-03T10:10:21.487Z,94901.81
2022-11-03T10:12:53.121Z,94898.19
2022-11-03T10:15:22.785Z,94895.63
2022-11-03T10:17:50.661Z,94888.09
2022-11-03T10:20:22.304Z,94892.00
2022-11-03T10:22:52.785Z,94895.91
2022-11-03T10:25:28.593Z,94889.59
2022-11-03T10:28:26.931Z,94881.97
2022-11-03T10:31:10.530Z,94888.31
2022-11-03T10:33:52.202Z,94877.22
2022-11-03T10:36:18.851Z,94870.59
2022-11-03T10:38:46.194Z,94868.28
2022-11-03T10:41:15.691Z,94858.53
2022-11-03T10:44:02.499Z,94859.69
2022-11-03T10:46:49.809Z,94853.03
2022-11-03T10:49:19.108Z,94853.03
2022-11-03T10:51:49.351Z,94865.78
2022-11-03T10:54:18.606Z,94859.59
2022-11-03T10:56:46.829Z,94852.38
2022-11-03T10:59:19.143Z,94842.78
2022-11-03T11:01:46.056Z,94842.84
2022-11-03T11:04:17.012Z,94840.94
2022-11-03T11:06:44.398Z,94836.59
2022-11-03T11:09:14.376Z,94848.19
2022-11-03T11:12:14.959Z,94840.09
2022-11-03T11:14:58.984Z,94841.53
2022-11-03T11:17:37.802Z,94837.31
2022-11-03T11:20:36.527Z,94835.28
2022-11-03T11:23:28.094Z,94831.69
2022-11-03T11:26:09.693Z,94826.88
2022-11-03T11:28:37.179Z,94821.97
2022-11-03T11:31:36.912Z,94807.00
2022-11-03T11:34:17.448Z,94804.16
2022-11-03T11:37:07.262Z,94793.25
2022-11-03T11:39:54.606Z,94787.47
2022-11-03T11:42:21.868Z,94795.00
2022-11-03T11:44:58.008Z,94793.84
2022-11-03T11:47:47.328Z,94795.50
2022-11-03T11:50:25.541Z,94799.47
2022-11-03T11:52:58.278Z,94795.50
2022-11-03T11:55:24.823Z,94792.75
2022-11-03T11:57:52.859Z,94795.75
2022-11-03T12:00:23.867Z,94792.66
2022-11-03T12:02:50.956Z,94787.97
2022-11-03T12:05:27.827Z,94786.34
2022-11-03T12:07:55.487Z,94775.34
2022-11-03T12:10:27.946Z,94775.75
2022-11-03T12:12:59.584Z,94772.28
2022-11-03T12:15:48.291Z,94759.59
2022-11-03T12:18:39.560Z,94757.66
2022-11-03T12:21:14.487Z,94751.91
2022-11-03T12:23:48.401Z,94751.09
2022-11-03T12:26:40.952Z,94748.66
2022-11-03T12:29:07.597Z,94739.03
2022-11-03T12:31:36.910Z,94745.31
2022-11-03T12:34:03.757Z,94735.38
2022-11-03T12:36:30.313Z,94741.59
2022-11-03T12:38:56.878Z,94734.44
2022-11-03T12:41:25.985Z,94733.34
2022-11-03T12:43:54.355Z,94731.88
2022-11-03T12:46:22.268Z,94725.97
2022-11-03T12:48:49.143Z,94719.09
2022-11-03T12:51:24.133Z,94710.47
2022-11-03T12:53:51.813Z,94700.75
2022-11-03T12:56:19.214Z,94700.50
2022-11-03T12:58:45.819Z,94697.53
2022-11-03T13:01:12.512Z,94686.88
2022-11-03T13:03:40.278Z,94688.84
2022-11-03T13:06:10.013Z,94673.47
2022-11-03T13:08:37.286Z,94669.78
2022-11-03T13:11:04.331Z,94668.19
2022-11-03T13:13:34.013Z,94668.53
2022-11-03T13:16:03.351Z,94671.09
2022-11-03T13:18:29.933Z,94661.84
2022-11-03T13:20:56.864Z,94665.38
2022-11-03T13:23:25.945Z,94667.38
2022-11-03T13:25:52.674Z,94654.97
2022-11-03T13:28:19.309Z,94658.94
2022-11-03T13:30:45.898Z,94655.13
2022-11-03T13:33:12.464Z,94648.47
2022-11-03T13:35:39.071Z,94638.56
2022-11-03T13:38:05.721Z,94638.94
2022-11-03T13:43:18.979Z,94644.25
2022-11-03T13:45:46.015Z,94632.72
2022-11-03T13:51:00.151Z,94619.94
2022-11-03T13:56:20.913Z,94609.09
2022-11-03T14:01:36.069Z,94610.06
2022-11-03T14:06:50.419Z,94611.81
2022-11-03T14:09:16.998Z,94618.06
2022-11-03T14:12:02.057Z,94604.31
2022-11-03T14:14:28.718Z,94592.16
2022-11-03T14:16:55.339Z,94594.44
2022-11-03T14:19:29.425Z,94593.31
2022-11-03T14:22:02.480Z,94580.97
2022-11-03T14:24:29.082Z,94590.91
2022-11-03T14:26:55.694Z,94590.38
2022-11-03T14:29:22.255Z,94600.25
2022-11-03T14:31:48.860Z,94595.88
2022-11-03T14:34:15.518Z,94589.38
2022-11-03T14:36:42.309Z,94595.78
2022-11-03T14:39:08.928Z,94581.41
2022-11-03T14:41:54.137Z,94587.22
2022-11-03T14:44:20.701Z,94590.78
2022-11-03T14:46:47.387Z,94595.69
2022-11-03T14:49:13.972Z,94571.94
2022-11-03T14:51:40.633Z,94562.22
2022-11-03T14:54:09.982Z,94550.78
2022-11-03T14:56:36.535Z,94556.72
2022-11-03T14:59:03.192Z,94565.50
2022-11-03T15:01:31.718Z,94577.06
2022-11-03T15:03:58.589Z,94568.56
2022-11-03T15:06:25.245Z,94560.41
2022-11-03T15:08:56.204Z,94549.69
2022-11-03T15:11:23.204Z,94539.69
2022-11-03T15:13:52.257Z,94521.13
2022-11-03T15:16:19.439Z,94526.72
2022-11-03T15:18:46.126Z,94525.28
2022-11-03T15:21:12.967Z,94521.66
2022-11-03T15:26:26.513Z,94515.34
2022-11-03T15:28:53.680Z,94513.94
2022-11-03T15:31:20.329Z,94506.53
2022-11-03T15:33:46.879Z,94502.00
2022-11-03T15:36:13.506Z,94487.66
2022-11-03T15:38:40.154Z,94469.75
2022-11-03T15:41:15.933Z,94446.19
2022-11-03T15:43:43.745Z,94435.13
2022-11-03T15:46:10.902Z,94425.66
2022-11-03T15:48:38.261Z,94425.72
2022-11-03T15:51:05.813Z,94436.53
2022-11-03T15:53:32.747Z,94441.00
2022-11-03T15:55:59.811Z,94447.47
2022-11-03T15:58:26.590Z,94439.25
2022-11-03T16:00:53.255Z,94434.75
2022-11-03T16:03:19.951Z,94435.28
2022-11-03T16:05:46.610Z,94426.25
2022-11-03T16:08:13.215Z,94422.50
2022-11-03T16:10:44.234Z,94417.84
2022-11-03T16:13:16.440Z,94413.53
2022-11-03T16:15:43.046Z,94413.91
2022-11-03T16:18:10.254Z,94424.22
2022-11-03T16:20:39.466Z,94414.53
2022-11-03T16:23:26.700Z,94405.63
2022-11-03T16:25:53.750Z,94403.03
2022-11-03T16:28:20.355Z,94406.28
2022-11-03T16:30:52.857Z,94400.53
2022-11-03T16:33:20.797Z,94399.72
2022-11-03T16:35:47.443Z,94386.63
2022-11-03T16:38:15.291Z,94383.13
2022-11-03T16:40:42.562Z,94382.38
2022-11-03T16:43:09.590Z,94373.50
2022-11-03T16:45:37.993Z,94380.47
2022-11-03T16:48:06.448Z,94360.44
2022-11-03T16:50:33.819Z,94356.09
2022-11-03T16:53:00.405Z,94343.38
2022-11-03T16:55:27.100Z,94335.81
2022-11-03T16:57:53.636Z,94334.38
2022-11-03T17:00:20.776Z,94330.47
2022-11-03T17:02:47.730Z,94317.25
2022-11-03T17:05:16.617Z,94307.75
2022-11-03T17:07:46.311Z,94292.44
2022-11-03T17:10:15.414Z,94286.59
2022-11-03T17:12:42.099Z,94276.47
2022-11-03T17:15:09.067Z,94270.38
2022-11-03T17:17:35.692Z,94272.94
2022-11-03T17:20:02.241Z,94267.78
2022-11-03T17:22:28.826Z,94268.09
2022-11-03T17:24:55.602Z,94260.00
2022-11-03T17:27:28.077Z,94260.31
2022-11-03T17:29:59.151Z,94257.41
2022-11-03T17:32:31.531Z,94245.03
2022-11-03T17:34:58.679Z,94232.97
2022-11-03T17:37:26.727Z,94219.88
2022-11-03T17:39:53.662Z,94215.84
2022-11-03T17:42:24.676Z,94205.53
2022-11-03T17:44:53.887Z,94206.19
2022-11-03T17:47:20.677Z,94198.72
2022-11-03T17:49:48.725Z,94191.16
2022-11-03T17:52:19.011Z,94183.66
2022-11-03T17:54:48.935Z,94178.56
2022-11-03T17:57:21.996Z,94183.94
2022-11-03T17:59:53.499Z,94183.00
2022-11-03T18:02:21.947Z,94179.28
2022-11-03T18:04:49.493Z,94187.16
2022-11-03T18:07:28.970Z,94184.91
2022-11-03T18:09:58.297Z,94193.09
2022-11-03T18:12:48.447Z,94195.41
2022-11-03T18:15:19.976Z,94193.56
2022-11-03T18:17:46.844Z,94194.41
2022-11-03T18:20:18.479Z,94198.97
2022-11-03T18:22:47.670Z,94197.03
2022-11-03T18:25:16.698Z,94193.00
2022-11-03T18:27:46.606Z,94189.94
2022-11-03T18:30:18.507Z,94175.91
2022-11-03T18:32:45.787Z,94173.00
2022-11-03T18:35:23.856Z,94151.06
2022-11-03T18:37:50.909Z,94149.56
2022-11-03T18:40:20.204Z,94139.06
2022-11-03T18:42:46.924Z,94138.38
2022-11-03T18:45:16.204Z,94141.13
2022-11-03T18:47:43.246Z,94129.88
2022-11-03T18:50:17.380Z,94120.31
2022-11-03T18:52:52.056Z,94111.88
2022-11-03T18:55:18.786Z,94111.59
2022-11-03T18:57:45.490Z,94116.94
2022-11-03T19:00:20.680Z,94115.63
2022-11-03T19:02:50.621Z,94110.78
2022-11-03T19:05:20.984Z,94085.97
2022-11-03T19:07:50.089Z,94103.59
2022-11-03T19:10:22.411Z,94094.69
2022-11-03T19:12:49.049Z,94095.25
2022-11-03T19:15:24.687Z,94084.47
2022-11-03T19:17:56.201Z,94094.69
2022-11-03T19:20:23.596Z,94082.75
2022-11-03T19:22:50.161Z,94070.09
2022-11-03T19:25:18.613Z,94071.75
2022-11-03T19:27:48.011Z,94050.56
2022-11-03T19:30:20.599Z,94040.84
2022-11-03T19:32:50.268Z,94045.81
2022-11-03T19:35:23.872Z,94047.06
2022-11-03T19:38:04.818Z,94023.72
2022-11-03T19:40:31.839Z,94021.31
2022-11-03T19:42:58.903Z,94012.59
2022-11-03T19:45:25.687Z,94023.53
2022-11-03T19:50:49.643Z,94019.19
2022-11-03T19:53:23.579Z,94014.34
2022-11-03T19:55:50.443Z,94025.78
2022-11-03T19:58:24.531Z,94018.84
2022-11-03T20:00:52.209Z,94013.75
2022-11-03T20:03:19.027Z,94004.28
2022-11-03T20:05:49.545Z,93990.94
2022-11-03T20:08:20.221Z,93990.03
2022-11-03T20:10:47.526Z,93986.22
2022-11-03T20:13:16.268Z,93987.81
2022-11-03T20:15:42.868Z,93977.31
2022-11-03T20:18:11.972Z,93975.09
2022-11-03T20:20:40.036Z,93975.38
2022-11-03T20:23:08.846Z,93984.09
2022-11-03T20:25:35.901Z,93976.78
2022-11-03T20:28:15.619Z,93961.84
2022-11-03T20:30:42.644Z,93964.78
2022-11-03T20:33:15.504Z,93951.22
2022-11-03T20:35:43.353Z,93935.47
2022-11-03T20:38:12.478Z,93927.13
2022-11-03T20:40:40.113Z,93929.50
2022-11-03T20:43:07.501Z,93924.06
2022-11-03T20:45:34.209Z,93917.03
2022-11-03T20:48:00.859Z,93918.81
2022-11-03T20:50:30.390Z,93910.25
2022-11-03T20:52:59.059Z,93918.00
2022-11-03T20:55:27.374Z,93912.97
2022-11-03T20:57:55.381Z,93898.88
2022-11-03T21:00:26.807Z,93889.00
2022-11-03T21:02:55.201Z,93892.25
2022-11-03T21:05:25.038Z,93891.34
2022-11-03T21:07:52.613Z,93884.25
2022-11-03T21:10:21.197Z,93883.69
2022-11-03T21:12:48.322Z,93891.00
2022-11-03T21:16:03.684Z,93889.88
2022-11-03T21:18:47.314Z,93882.16
2022-11-03T21:21:19.661Z,93886.22
2022-11-03T21:23:47.512Z,93886.34
2022-11-03T21:26:14.135Z,93889.91
2022-11-03T21:28:40.801Z,93891.22
2022-11-03T21:31:12.903Z,93890.81
2022-11-03T21:33:39.471Z,93890.00
2022-11-03T21:36:06.267Z,93894.03
2022-11-03T21:38:32.918Z,93886.13
2022-11-03T21:41:19.440Z,93889.28
2022-11-03T21:44:04.648Z,93884.38
2022-11-03T21:46:31.215Z,93867.00
2022-11-03T21:49:16.305Z,93872.75
2022-11-03T21:51:42.868Z,93871.66
2022-11-03T21:54:09.419Z,93881.81
2022-11-03T21:56:35.991Z,93871.47
2022-11-03T21:59:02.584Z,93876.91
2022-11-03T22:01:29.206Z,93883.44
2022-11-03T22:03:59.858Z,93889.78
2022-11-03T22:06:26.380Z,93897.22
2022-11-03T22:08:52.945Z,93897.72
2022-11-03T22:11:22.330Z,93913.59
2022-11-03T22:13:48.944Z,93914.69
2022-11-03T22:16:34.111Z,93905.81
2022-11-03T22:19:19.204Z,93907.09
2022-11-03T22:22:04.514Z,93891.13
2022-11-03T22:24:49.783Z,93908.31
2022-11-03T22:27:16.476Z,93902.66
2022-11-03T22:30:01.705Z,93893.72
2022-11-03T22:32:28.376Z,93908.53
2022-11-03T22:35:13.653Z,93950.88
2022-11-03T22:37:40.306Z,93959.06
2022-11-03T22:40:26.031Z,93978.25
2022-11-03T22:43:11.423Z,93988.22
2022-11-03T22:45:51.620Z,93991.72
2022-11-03T22:48:19.015Z,94003.88
2022-11-03T22:50:45.853Z,94016.72
2022-11-03T22:53:31.007Z,94023.88
2022-11-03T22:56:01.344Z,94031.56
2022-11-03T22:58:30.546Z,94036.34
2022-11-03T23:00:57.512Z,94044.38
2022-11-03T23:03:26.892Z,94044.91
2022-11-03T23:05:53.445Z,94070.66
2022-11-03T23:08:20.096Z,94074.56
2022-11-03T23:10:50.540Z,94074.03
2022-11-03T23:13:17.138Z,94089.19
2022-11-03T23:15:43.842Z,94093.69
2022-11-03T23:18:28.847Z,94089.31
2022-11-03T23:21:08.512Z,94096.31
2022-11-03T23:23:55.910Z,94102.47
2022-11-03T23:26:28.752Z,94111.53
2022-11-03T23:28:55.353Z,94134.53
2022-11-03T23:31:22.194Z,94130.44
2022-11-03T23:33:48.860Z,94131.31
2022-11-03T23:36:16.823Z,94142.38
2022-11-03T23:38:44.384Z,94133.88
2022-11-03T23:41:14.405Z,94146.00
2022-11-03T23:43:42.077Z,94154.84
2022-11-03T23:46:29.735Z,94154.28
2022-11-03T23:48:56.376Z,94167.75
2022-11-03T23:51:24.776Z,94186.16
2022-11-03T23:53:52.105Z,94190.84
2022-11-03T23:56:40.802Z,94192.44
2022-11-03T23:59:08.302Z,94198.25
